Time;durP1;ratioP1;P1;durP2;ratioP2;P2;SDS_P1;SDS_P2;PMS_P1;PMS_P2;Temp;Humidity;BMP_temperature;BMP_pressure;BME280_temperature;BME280_humidity;BME280_pressure;Samples;Min_cycle;Max_cycle;Signal;HPM_P1;HPM_P2
2021/01/22 00:00:14;;;;;;;3.60;1.20;;;7.60;94.90;;;;;;5034635;28;20042;-77
2021/01/22 00:02:40;;;;;;;2.90;1.80;;;7.50;94.70;;;;;;5032602;28;20034;-76
2021/01/22 00:05:07;;;;;;;3.13;1.67;;;7.20;94.60;;;;;;5035334;28;20120;-76
2021/01/22 00:07:34;;;;;;;4.00;2.00;;;6.90;94.40;;;;;;5034841;28;20069;-77
2021/01/22 00:10:01;;;;;;;3.57;2.03;;;6.70;94.50;;;;;;5007059;28;20083;-76
2021/01/22 00:12:28;;;;;;;3.30;1.70;;;6.40;94.60;;;;;;5034007;28;20559;-77
2021/01/22 00:14:54;;;;;;;2.47;1.40;;;6.30;94.70;;;;;;5032100;28;20452;-78
2021/01/22 00:17:20;;;;;;;3.20;1.57;;;6.20;94.90;;;;;;5026046;28;20045;-76
2021/01/22 00:19:47;;;;;;;2.40;1.47;;;6.10;94.90;;;;;;5017134;28;20037;-78
2021/01/22 00:22:14;;;;;;;2.87;1.40;;;6.10;94.90;;;;;;4997558;28;20053;-77
2021/01/22 00:24:40;;;;;;;3.23;1.27;;;6.00;94.90;;;;;;5013658;28;20052;-77
2021/01/22 00:27:07;;;;;;;2.60;1.40;;;5.90;94.80;;;;;;5017339;28;20095;-76
2021/01/22 00:29:33;;;;;;;2.23;1.10;;;5.90;94.80;;;;;;5000984;28;20057;-77
2021/01/22 00:31:59;;;;;;;2.07;1.00;;;5.80;94.90;;;;;;5033464;28;20154;-77
2021/01/22 00:34:27;;;;;;;2.00;0.93;;;5.80;94.80;;;;;;5033318;28;20140;-77
2021/01/22 00:36:54;;;;;;;3.13;1.30;;;5.80;94.80;;;;;;5016991;28;20044;-75
2021/01/22 00:39:20;;;;;;;1.87;0.90;;;5.60;94.60;;;;;;5025694;28;20046;-75
2021/01/22 00:41:47;;;;;;;1.90;1.00;;;5.50;94.80;;;;;;5032720;28;20034;-74
2021/01/22 00:44:13;;;;;;;2.30;1.00;;;5.40;94.60;;;;;;5026783;28;20037;-74
2021/01/22 00:46:39;;;;;;;2.13;0.80;;;5.40;94.80;;;;;;5011434;28;20034;-75
2021/01/22 00:49:06;;;;;;;1.73;0.77;;;5.30;94.80;;;;;;5033649;28;20037;-75
2021/01/22 00:51:34;;;;;;;1.83;0.70;;;5.40;94.80;;;;;;5039051;28;20048;-75
2021/01/22 00:54:02;;;;;;;1.10;0.60;;;5.20;94.50;;;;;;5017560;28;20073;-76
2021/01/22 00:56:38;;;;;;;1.20;0.90;;;5.10;94.60;;;;;;5020711;28;20053;-74
2021/01/22 00:59:04;;;;;;;1.33;0.43;;;4.90;94.60;;;;;;5020273;28;20445;-74
2021/01/22 01:01:34;;;;;;;1.93;0.50;;;4.80;94.70;;;;;;5036671;28;20045;-74
2021/01/22 01:04:03;;;;;;;1.00;0.50;;;4.80;94.70;;;;;;5019666;28;20049;-75
2021/01/22 01:06:38;;;;;;;1.23;0.50;;;4.70;94.60;;;;;;5017908;28;20397;-74
2021/01/22 01:09:10;;;;;;;1.27;0.70;;;4.60;94.70;;;;;;5016053;28;20103;-74
2021/01/22 01:12:00;;;;;;;1.73;0.70;;;4.50;94.60;;;;;;5015554;28;20049;-74
2021/01/22 01:14:41;;;;;;;1.83;0.90;;;4.40;94.70;;;;;;5002077;28;20405;-74
2021/01/22 01:17:08;;;;;;;1.90;0.80;;;4.40;94.80;;;;;;5014733;28;20037;-74
2021/01/22 01:19:34;;;;;;;1.60;0.90;;;4.40;94.90;;;;;;5022183;28;20128;-74
2021/01/22 01:22:01;;;;;;;2.33;0.93;;;4.40;94.90;;;;;;5022823;28;20116;-74
2021/01/22 01:24:28;;;;;;;2.27;0.97;;;4.40;95.00;;;;;;5026744;28;20732;-74
2021/01/22 01:26:54;;;;;;;3.03;1.23;;;4.40;95.00;;;;;;5015633;28;20106;-74
2021/01/22 01:29:21;;;;;;;2.70;1.00;;;4.50;95.00;;;;;;5023274;28;20037;-73
2021/01/22 01:31:47;;;;;;;2.80;1.10;;;4.50;94.90;;;;;;5010758;28;20065;-74
2021/01/22 01:34:14;;;;;;;2.37;1.10;;;4.50;94.90;;;;;;5014322;28;20175;-74
2021/01/22 01:36:40;;;;;;;3.47;0.93;;;4.50;94.90;;;;;;5031663;28;20041;-74
2021/01/22 01:39:07;;;;;;;3.27;1.23;;;4.50;94.90;;;;;;5015952;28;20517;-74
2021/01/22 01:41:34;;;;;;;1.80;0.90;;;4.50;94.90;;;;;;5031832;28;20041;-74
2021/01/22 01:44:01;;;;;;;3.43;1.13;;;4.50;94.90;;;;;;5023842;28;20116;-74
2021/01/22 01:46:27;;;;;;;2.23;0.97;;;4.50;94.90;;;;;;5031759;28;20049;-74
2021/01/22 01:48:55;;;;;;;1.87;0.80;;;4.50;94.80;;;;;;5029910;28;20064;-74
2021/01/22 01:51:22;;;;;;;2.50;0.90;;;4.50;94.90;;;;;;5024898;28;20038;-74
2021/01/22 01:53:48;;;;;;;3.37;1.23;;;4.50;94.90;;;;;;5031407;28;20102;-74
2021/01/22 01:56:15;;;;;;;2.70;1.20;;;4.60;94.90;;;;;;5005102;28;20038;-74
2021/01/22 01:58:42;;;;;;;2.67;1.00;;;4.50;94.80;;;;;;5034855;28;20068;-73
2021/01/22 02:01:14;;;;;;;2.83;1.20;;;4.50;94.80;;;;;;5002627;28;20030;-74
2021/01/22 02:03:41;;;;;;;3.00;1.30;;;4.50;94.80;;;;;;5011609;28;20092;-74
2021/01/22 02:06:07;;;;;;;4.30;1.43;;;4.50;94.90;;;;;;5028902;28;20072;-74
2021/01/22 02:08:34;;;;;;;2.33;1.10;;;4.50;94.90;;;;;;5014853;28;20056;-73
2021/01/22 02:11:02;;;;;;;2.50;1.20;;;4.50;94.90;;;;;;5025538;28;20062;-74
2021/01/22 02:13:30;;;;;;;2.70;1.37;;;4.50;94.80;;;;;;5015196;28;20041;-74
2021/01/22 02:15:58;;;;;;;2.07;1.03;;;4.50;94.90;;;;;;5030907;28;20080;-74
2021/01/22 02:18:26;;;;;;;2.90;1.33;;;4.60;94.90;;;;;;5011682;28;20128;-73
2021/01/22 02:21:08;;;;;;;4.10;1.77;;;4.60;94.80;;;;;;5019714;28;20065;-73
2021/01/22 02:23:40;;;;;;;3.67;2.10;;;4.60;94.80;;;;;;5031518;28;20038;-73
2021/01/22 02:26:29;;;;;;;3.30;2.00;;;4.60;94.80;;;;;;5020599;28;20826;-73
2021/01/22 02:29:08;;;;;;;3.20;1.70;;;4.60;94.80;;;;;;5032264;28;20064;-74
2021/01/22 02:31:37;;;;;;;3.27;1.67;;;4.60;94.80;;;;;;5032256;28;20095;-74
2021/01/22 02:34:08;;;;;;;3.80;1.93;;;4.60;94.80;;;;;;5030351;28;20049;-74
2021/01/22 02:36:40;;;;;;;4.03;1.43;;;4.60;94.80;;;;;;5030852;28;20095;-72
2021/01/22 02:39:11;;;;;;;3.43;2.00;;;4.70;94.80;;;;;;5021958;28;20042;-72
2021/01/22 02:41:40;;;;;;;3.43;2.13;;;4.70;94.90;;;;;;5013734;28;20037;-72
2021/01/22 02:44:09;;;;;;;4.93;2.27;;;4.70;94.80;;;;;;5016007;28;20064;-72
2021/01/22 02:46:36;;;;;;;5.27;2.93;;;4.70;94.80;;;;;;5018351;28;20091;-72
2021/01/22 02:49:03;;;;;;;8.73;5.13;;;4.70;94.80;;;;;;5030937;28;20836;-72
2021/01/22 02:51:30;;;;;;;8.33;4.73;;;4.70;94.80;;;;;;5024347;28;20041;-72
2021/01/22 02:53:56;;;;;;;9.30;5.13;;;4.70;94.80;;;;;;5017018;28;20057;-72
2021/01/22 02:56:29;;;;;;;9.57;4.93;;;4.70;94.80;;;;;;5001126;28;20042;-72
2021/01/22 02:59:06;;;;;;;9.65;5.47;;;4.60;94.70;;;;;;5016158;28;20042;-72
2021/01/22 03:01:41;;;;;;;9.87;5.00;;;4.60;94.80;;;;;;5025411;28;20123;-72
2021/01/22 03:04:12;;;;;;;12.27;5.07;;;4.60;94.80;;;;;;5022690;28;20140;-72
2021/01/22 03:06:42;;;;;;;8.93;4.70;;;4.50;94.80;;;;;;5017499;28;20045;-72
2021/01/22 03:09:17;;;;;;;9.10;4.93;;;4.50;94.90;;;;;;5016998;28;20441;-72
2021/01/22 03:11:48;;;;;;;10.97;5.50;;;4.50;94.90;;;;;;5021515;28;20053;-72
2021/01/22 03:14:15;;;;;;;9.57;5.57;;;4.50;94.90;;;;;;5034196;28;20052;-72
2021/01/22 03:16:42;;;;;;;8.90;4.73;;;4.40;94.90;;;;;;5033491;28;20045;-72
2021/01/22 03:19:09;;;;;;;7.77;4.20;;;4.40;94.90;;;;;;5030649;28;20049;-72
2021/01/22 03:21:35;;;;;;;9.40;5.77;;;4.40;94.90;;;;;;5027842;28;20038;-72
2021/01/22 03:24:02;;;;;;;9.40;5.73;;;4.40;94.90;;;;;;5030128;28;20107;-72
2021/01/22 03:26:29;;;;;;;11.40;6.00;;;4.40;94.90;;;;;;5012030;28;20421;-72
2021/01/22 03:28:55;;;;;;;8.03;5.40;;;4.30;94.90;;;;;;5032420;28;20498;-72
2021/01/22 03:31:22;;;;;;;7.93;4.63;;;4.30;95.00;;;;;;5021593;28;20052;-72
2021/01/22 03:33:48;;;;;;;10.17;5.80;;;4.30;95.00;;;;;;5034768;28;20085;-72
2021/01/22 03:36:15;;;;;;;7.93;4.67;;;4.30;95.00;;;;;;5026392;28;20042;-72
2021/01/22 03:38:42;;;;;;;10.10;5.80;;;4.30;95.00;;;;;;5032276;28;20046;-72
2021/01/22 03:41:09;;;;;;;8.70;5.33;;;4.30;95.10;;;;;;5031751;28;20111;-72
2021/01/22 03:43:35;;;;;;;10.33;6.20;;;4.40;95.10;;;;;;5024494;28;20104;-72
2021/01/22 03:46:02;;;;;;;9.73;5.80;;;4.40;95.00;;;;;;5021611;28;20049;-72
2021/01/22 03:48:29;;;;;;;8.47;5.37;;;4.40;95.00;;;;;;5012403;28;20080;-72
2021/01/22 03:50:55;;;;;;;8.40;5.27;;;4.40;94.90;;;;;;5033451;28;20045;-72
2021/01/22 03:53:22;;;;;;;7.40;4.57;;;4.40;94.90;;;;;;5034571;28;20049;-72
2021/01/22 03:55:53;;;;;;;7.90;5.20;;;4.30;95.00;;;;;;5016502;28;20041;-72
2021/01/22 03:58:20;;;;;;;7.17;4.47;;;4.30;95.00;;;;;;5030129;28;20453;-73
2021/01/22 04:00:46;;;;;;;5.13;3.40;;;4.20;95.00;;;;;;5015498;28;20548;-72
2021/01/22 04:03:12;;;;;;;4.70;3.13;;;4.20;95.00;;;;;;5033044;28;20065;-72
2021/01/22 04:05:39;;;;;;;5.73;3.33;;;4.20;95.00;;;;;;5016127;28;20133;-72
2021/01/22 04:08:06;;;;;;;5.37;3.40;;;4.20;95.10;;;;;;5034151;28;20112;-72
2021/01/22 04:10:32;;;;;;;5.57;3.13;;;4.10;95.10;;;;;;5028294;28;20050;-72
2021/01/22 04:12:59;;;;;;;6.37;3.47;;;4.10;95.10;;;;;;5028302;28;20412;-72
2021/01/22 04:15:25;;;;;;;6.10;3.03;;;4.20;95.10;;;;;;5008764;28;20533;-72
2021/01/22 04:17:52;;;;;;;4.67;2.77;;;4.20;95.10;;;;;;5024471;28;20039;-72
2021/01/22 04:20:21;;;;;;;6.27;3.00;;;4.20;95.20;;;;;;5024419;28;20056;-72
2021/01/22 04:22:49;;;;;;;4.80;2.30;;;4.30;95.20;;;;;;5032121;28;20046;-72
2021/01/22 04:25:17;;;;;;;4.00;2.33;;;4.30;95.10;;;;;;5024572;28;20497;-72
2021/01/22 04:27:46;;;;;;;4.13;1.97;;;4.30;95.10;;;;;;5027667;28;20088;-73
2021/01/22 04:30:14;;;;;;;3.83;2.23;;;4.30;95.00;;;;;;5031087;28;20042;-72
2021/01/22 04:32:41;;;;;;;4.10;2.40;;;4.40;95.00;;;;;;5008954;28;20054;-72
2021/01/22 04:35:12;;;;;;;3.80;2.20;;;4.40;95.00;;;;;;5026892;28;20045;-72
2021/01/22 04:37:42;;;;;;;5.53;2.50;;;4.40;95.00;;;;;;5032592;28;20164;-72
2021/01/22 04:40:12;;;;;;;3.88;1.90;;;4.50;95.00;;;;;;5033471;28;20076;-72
2021/01/22 04:42:40;;;;;;;7.03;2.40;;;4.50;95.00;;;;;;5016363;28;20053;-72
2021/01/22 04:45:12;;;;;;;5.80;2.70;;;4.50;94.90;;;;;;5030841;28;20470;-72
2021/01/22 04:47:39;;;;;;;6.87;2.50;;;4.50;94.90;;;;;;5032540;28;20049;-72
2021/01/22 04:50:08;;;;;;;4.83;2.53;;;4.50;94.80;;;;;;5015897;28;20087;-72
2021/01/22 04:52:37;;;;;;;4.73;2.40;;;4.50;94.80;;;;;;5019584;28;20041;-72
2021/01/22 04:55:10;;;;;;;4.70;2.73;;;4.50;94.90;;;;;;5004968;28;20046;-72
2021/01/22 04:57:41;;;;;;;4.67;2.30;;;4.60;94.90;;;;;;5029812;28;20045;-72
2021/01/22 05:00:09;;;;;;;6.90;2.93;;;4.60;94.90;;;;;;5031072;28;20033;-72
2021/01/22 05:02:37;;;;;;;4.07;2.10;;;4.60;94.80;;;;;;5033344;28;20042;-72
2021/01/22 05:05:05;;;;;;;4.57;2.57;;;4.60;94.80;;;;;;5031753;28;20128;-72
2021/01/22 05:07:32;;;;;;;6.67;2.77;;;4.60;94.80;;;;;;5031018;28;20061;-72
2021/01/22 05:09:59;;;;;;;5.33;3.00;;;4.60;94.80;;;;;;5030507;28;20057;-72
2021/01/22 05:12:37;;;;;;;8.10;3.87;;;4.60;94.80;;;;;;5031776;28;20049;-72
2021/01/22 05:15:17;;;;;;;6.93;3.70;;;4.60;94.70;;;;;;5031587;28;20137;-73
2021/01/22 05:18:01;;;;;;;6.47;3.87;;;4.60;94.70;;;;;;5027658;28;20398;-72
2021/01/22 05:20:41;;;;;;;10.63;5.30;;;4.60;94.70;;;;;;5027189;28;20049;-72
2021/01/22 05:23:09;;;;;;;9.17;4.67;;;4.70;94.80;;;;;;5027241;28;20034;-72
2021/01/22 05:25:57;;;;;;;8.97;5.90;;;4.60;94.70;;;;;;5013975;28;20484;-72
2021/01/22 05:28:33;;;;;;;9.70;5.60;;;4.70;94.70;;;;;;5018478;28;20041;-72
2021/01/22 05:31:00;;;;;;;10.17;6.07;;;4.70;94.70;;;;;;5030730;28;20054;-72
2021/01/22 05:33:27;;;;;;;9.10;6.30;;;4.70;94.70;;;;;;5030353;28;20137;-72
2021/01/22 05:35:53;;;;;;;12.17;7.73;;;4.70;94.70;;;;;;5028453;28;20041;-72
2021/01/22 05:38:39;;;;;;;10.83;7.83;;;4.70;94.70;;;;;;5027021;28;20448;-72
2021/01/22 05:41:07;;;;;;;12.43;7.03;;;4.80;94.70;;;;;;5025290;28;20511;-72
2021/01/22 05:43:35;;;;;;;14.37;8.37;;;4.70;94.70;;;;;;5022970;28;20108;-72
2021/01/22 05:46:03;;;;;;;15.60;9.67;;;4.80;94.70;;;;;;5032407;28;20088;-72
2021/01/22 05:48:29;;;;;;;13.97;9.73;;;4.80;94.70;;;;;;5022831;28;20038;-72
2021/01/22 05:50:59;;;;;;;16.20;9.90;;;4.80;94.70;;;;;;5019643;28;20065;-73
2021/01/22 05:53:27;;;;;;;17.23;10.63;;;4.80;94.70;;;;;;5006026;28;20065;-73
2021/01/22 05:56:11;;;;;;;16.33;9.70;;;4.80;94.70;;;;;;5030255;28;20040;-72
2021/01/22 05:58:40;;;;;;;17.27;11.97;;;4.90;94.70;;;;;;5021483;28;20038;-73
2021/01/22 06:01:07;;;;;;;17.00;10.73;;;4.80;94.70;;;;;;5030568;28;20371;-72
2021/01/22 06:03:34;;;;;;;15.37;9.83;;;4.80;94.70;;;;;;5030909;28;20037;-72
2021/01/22 06:06:01;;;;;;;19.17;12.83;;;4.90;94.70;;;;;;5026228;28;20053;-72
2021/01/22 06:08:28;;;;;;;18.83;11.73;;;4.80;94.60;;;;;;5023860;28;20378;-72
2021/01/22 06:10:55;;;;;;;17.47;10.90;;;4.90;94.60;;;;;;5030788;28;20045;-72
2021/01/22 06:13:25;;;;;;;20.90;11.17;;;4.90;94.70;;;;;;5025122;28;20099;-72
2021/01/22 06:15:58;;;;;;;15.53;10.60;;;4.90;94.70;;;;;;5030657;28;20375;-72
2021/01/22 06:18:31;;;;;;;16.53;10.33;;;4.90;94.70;;;;;;5024012;28;20037;-72
2021/01/22 06:21:14;;;;;;;14.00;9.30;;;4.90;94.60;;;;;;5024539;28;20281;-72
2021/01/22 06:23:41;;;;;;;15.27;9.10;;;5.00;94.70;;;;;;5022012;28;20501;-72
2021/01/22 06:26:08;;;;;;;16.27;9.77;;;5.00;94.70;;;;;;5029928;28;20080;-72
2021/01/22 06:28:36;;;;;;;17.00;11.23;;;5.00;94.60;;;;;;5029659;28;20176;-72
2021/01/22 06:31:05;;;;;;;18.30;11.87;;;5.00;94.60;;;;;;5011347;28;20077;-72
2021/01/22 06:33:33;;;;;;;18.13;11.83;;;5.00;94.60;;;;;;5007855;28;20462;-73
2021/01/22 06:36:01;;;;;;;20.77;11.73;;;4.90;94.50;;;;;;5007760;28;20080;-72
2021/01/22 06:38:29;;;;;;;19.20;11.83;;;5.00;94.60;;;;;;5013512;28;20045;-72
2021/01/22 06:40:56;;;;;;;19.40;11.50;;;5.00;94.60;;;;;;5013948;28;20052;-72
2021/01/22 06:43:23;;;;;;;19.37;12.00;;;5.00;94.60;;;;;;5022320;28;20045;-72
2021/01/22 06:45:50;;;;;;;19.73;12.03;;;5.00;94.60;;;;;;5013618;28;20425;-72
2021/01/22 06:48:17;;;;;;;22.07;13.63;;;5.00;94.60;;;;;;5023411;28;20053;-73
2021/01/22 06:50:44;;;;;;;18.40;12.40;;;5.00;94.50;;;;;;5031570;28;20060;-73
2021/01/22 06:53:16;;;;;;;21.10;11.57;;;5.00;94.50;;;;;;5029666;28;20054;-73
2021/01/22 06:55:51;;;;;;;22.70;13.23;;;5.00;94.60;;;;;;5030208;28;20049;-73
2021/01/22 06:58:28;;;;;;;18.20;12.17;;;4.90;94.50;;;;;;5031843;28;20294;-74
2021/01/22 07:01:03;;;;;;;19.10;12.57;;;4.90;94.50;;;;;;5014535;28;20045;-74
2021/01/22 07:03:35;;;;;;;18.17;11.67;;;4.80;94.50;;;;;;5030697;28;20111;-75
2021/01/22 07:06:03;;;;;;;21.17;13.37;;;4.80;94.50;;;;;;5020390;28;20042;-75
2021/01/22 07:08:53;;;;;;;23.60;13.80;;;4.70;94.50;;;;;;5030980;28;20144;-74
2021/01/22 07:11:21;;;;;;;22.70;13.90;;;4.70;94.50;;;;;;5028285;28;20061;-74
2021/01/22 07:13:47;;;;;;;21.60;12.73;;;4.60;94.50;;;;;;5030815;28;20065;-74
2021/01/22 07:16:17;;;;;;;18.60;11.50;;;4.60;94.60;;;;;;5014752;28;20038;-74
2021/01/22 07:19:02;;;;;;;22.47;12.60;;;4.60;94.70;;;;;;5031924;28;20568;-74
2021/01/22 07:21:37;;;;;;;20.67;12.80;;;4.60;94.70;;;;;;5015729;28;20037;-74
2021/01/22 07:24:08;;;;;;;20.53;13.00;;;4.60;94.70;;;;;;5014468;28;20037;-75
2021/01/22 07:26:39;;;;;;;19.57;11.80;;;4.60;94.60;;;;;;5031720;28;20042;-75
2021/01/22 07:29:24;;;;;;;21.80;13.47;;;4.60;94.60;;;;;;5030551;28;20523;-74
2021/01/22 07:31:57;;;;;;;19.33;11.23;;;4.60;94.60;;;;;;5031587;28;20037;-74
2021/01/22 07:34:43;;;;;;;18.90;11.13;;;4.70;94.60;;;;;;5031365;28;20045;-75
2021/01/22 07:37:18;;;;;;;19.60;12.60;;;4.70;94.60;;;;;;5010837;28;20058;-75
2021/01/22 07:39:46;;;;;;;19.67;11.87;;;4.60;94.60;;;;;;5028282;28;20045;-74
2021/01/22 07:42:21;;;;;;;19.13;12.30;;;4.60;94.60;;;;;;5031211;28;20068;-75
2021/01/22 07:44:51;;;;;;;25.57;12.97;;;4.60;94.60;;;;;;5031956;28;20366;-75
2021/01/22 07:47:29;;;;;;;18.03;12.03;;;4.50;94.60;;;;;;5030014;28;20049;-75
2021/01/22 07:49:57;;;;;;;20.80;12.47;;;4.60;94.60;;;;;;5030623;28;20115;-75
2021/01/22 07:52:23;;;;;;;18.37;11.27;;;4.50;94.60;;;;;;5020105;28;20124;-75
2021/01/22 07:54:51;;;;;;;17.47;11.17;;;4.50;94.60;;;;;;5030248;28;20053;-75
2021/01/22 07:57:25;;;;;;;16.63;9.83;;;4.50;94.70;;;;;;5003294;28;20068;-75
2021/01/22 07:59:53;;;;;;;18.52;10.20;;;4.60;94.70;;;;;;5034998;28;20037;-75
2021/01/22 08:02:24;;;;;;;16.67;10.67;;;4.50;94.70;;;;;;5020848;28;20116;-74
2021/01/22 08:05:02;;;;;;;17.27;10.67;;;4.60;94.70;;;;;;5028842;28;20125;-74
2021/01/22 08:07:41;;;;;;;18.33;9.80;;;4.60;94.70;;;;;;5029745;28;20057;-74
2021/01/22 08:10:11;;;;;;;17.10;10.00;;;4.60;94.60;;;;;;5033229;28;20072;-75
2021/01/22 08:12:54;;;;;;;14.97;9.30;;;4.60;94.70;;;;;;5033247;28;20513;-75
2021/01/22 08:15:21;;;;;;;18.13;10.03;;;4.70;94.70;;;;;;5031561;28;20451;-75
2021/01/22 08:17:51;;;;;;;19.03;10.80;;;4.70;94.60;;;;;;5017140;28;20037;-75
2021/01/22 08:20:19;;;;;;;14.47;8.90;;;4.70;94.60;;;;;;5033620;28;20041;-75
2021/01/22 08:22:53;;;;;;;15.83;10.13;;;4.80;94.70;;;;;;5033512;28;20580;-75
2021/01/22 08:25:40;;;;;;;21.47;12.43;;;4.80;94.60;;;;;;5024808;28;20042;-75
2021/01/22 08:28:08;;;;;;;23.33;11.70;;;4.80;94.50;;;;;;5012651;28;20042;-75
2021/01/22 08:30:36;;;;;;;18.70;11.03;;;4.80;94.50;;;;;;5030676;28;20565;-75
2021/01/22 08:33:05;;;;;;;17.57;10.47;;;4.70;94.50;;;;;;5027455;28;20038;-75
2021/01/22 08:35:33;;;;;;;16.77;10.07;;;4.70;94.50;;;;;;5023990;28;20490;-75
2021/01/22 08:38:00;;;;;;;15.83;10.73;;;4.70;94.50;;;;;;5023132;28;20049;-76
2021/01/22 08:40:43;;;;;;;15.70;10.30;;;4.80;94.50;;;;;;5013095;28;20501;-75
2021/01/22 08:43:12;;;;;;;17.63;10.07;;;4.80;94.50;;;;;;5015197;28;20050;-73
2021/01/22 08:45:40;;;;;;;16.93;9.93;;;4.80;94.50;;;;;;5015336;28;20509;-75
2021/01/22 08:48:07;;;;;;;17.37;9.40;;;4.80;94.50;;;;;;5032557;28;20124;-75
2021/01/22 08:50:35;;;;;;;14.07;9.17;;;4.80;94.50;;;;;;5032577;28;20049;-76
2021/01/22 08:53:14;;;;;;;20.37;10.60;;;4.90;94.50;;;;;;5031892;28;20041;-74
2021/01/22 08:55:43;;;;;;;17.83;10.90;;;4.90;94.40;;;;;;5025872;28;20056;-72
2021/01/22 08:58:11;;;;;;;16.70;10.70;;;4.90;94.40;;;;;;5028274;28;20041;-71
2021/01/22 09:00:39;;;;;;;16.87;10.43;;;4.90;94.40;;;;;;5038938;28;20048;-72
2021/01/22 09:03:22;;;;;;;15.13;8.23;;;4.90;94.40;;;;;;5033146;28;20042;-72
2021/01/22 09:05:54;;;;;;;16.20;9.97;;;4.90;94.40;;;;;;5028323;28;20065;-71
2021/01/22 09:08:22;;;;;;;14.23;9.10;;;4.90;94.30;;;;;;5022632;28;20080;-72
2021/01/22 09:10:52;;;;;;;14.97;9.57;;;4.90;94.30;;;;;;5024020;28;20128;-72
2021/01/22 09:13:26;;;;;;;14.97;9.07;;;4.90;94.30;;;;;;5015097;28;20041;-71
2021/01/22 09:16:07;;;;;;;20.70;9.40;;;5.00;94.30;;;;;;5018993;28;20045;-72
2021/01/22 09:18:33;;;;;;;15.63;9.07;;;5.00;94.30;;;;;;5008424;28;20054;-71
2021/01/22 09:21:09;;;;;;;13.10;7.73;;;5.00;94.30;;;;;;5022813;28;20038;-72
2021/01/22 09:23:39;;;;;;;13.60;8.13;;;5.00;94.30;;;;;;5022123;28;20033;-72
2021/01/22 09:26:06;;;;;;;13.47;8.13;;;5.00;94.30;;;;;;5029092;28;20053;-72
2021/01/22 09:28:32;;;;;;;13.80;8.67;;;5.00;94.30;;;;;;5036103;28;20053;-72
2021/01/22 09:30:58;;;;;;;15.17;8.23;;;5.10;94.30;;;;;;5036128;28;20052;-73
2021/01/22 09:33:25;;;;;;;12.17;6.87;;;5.10;94.30;;;;;;5028922;28;20045;-72
2021/01/22 09:35:52;;;;;;;14.03;8.30;;;5.20;94.30;;;;;;5027697;28;20042;-72
2021/01/22 09:38:18;;;;;;;13.87;9.43;;;5.20;94.20;;;;;;5029068;28;20091;-72
2021/01/22 09:40:45;;;;;;;13.23;8.03;;;5.20;94.10;;;;;;5030553;28;20128;-72
2021/01/22 09:43:13;;;;;;;14.07;8.30;;;5.20;94.20;;;;;;5025816;28;20056;-72
2021/01/22 09:45:39;;;;;;;13.93;8.07;;;5.20;94.20;;;;;;5012060;28;20053;-72
2021/01/22 09:48:06;;;;;;;12.70;7.50;;;5.30;94.20;;;;;;5029545;28;20432;-72
2021/01/22 09:50:33;;;;;;;15.43;7.83;;;5.20;94.10;;;;;;5010060;28;20077;-72
2021/01/22 09:52:59;;;;;;;13.23;7.13;;;5.20;94.10;;;;;;5026032;28;20045;-72
2021/01/22 09:55:28;;;;;;;14.07;8.83;;;5.20;94.40;;;;;;5022998;28;20045;-72
2021/01/22 09:57:54;;;;;;;14.67;8.93;;;5.20;94.10;;;;;;5023415;28;20049;-73
2021/01/22 10:00:21;;;;;;;11.87;7.53;;;5.20;94.10;;;;;;5024672;28;21638;-73
2021/01/22 10:02:47;;;;;;;13.53;7.83;;;5.30;94.10;;;;;;5021469;28;20437;-73
2021/01/22 10:05:14;;;;;;;14.07;7.37;;;5.40;94.20;;;;;;5004293;28;20140;-75
2021/01/22 10:07:41;;;;;;;14.17;7.47;;;5.50;94.10;;;;;;5019272;28;20045;-74
2021/01/22 10:10:08;;;;;;;11.90;7.67;;;5.50;94.00;;;;;;5015372;28;20132;-76
2021/01/22 10:12:35;;;;;;;13.73;8.37;;;5.60;94.00;;;;;;5031450;28;20401;-75
2021/01/22 10:15:02;;;;;;;13.83;8.50;;;5.60;94.00;;;;;;4998955;28;20068;-75
2021/01/22 10:17:29;;;;;;;13.87;8.00;;;5.70;93.80;;;;;;5026974;28;20049;-75
2021/01/22 10:19:56;;;;;;;12.03;8.00;;;5.80;93.80;;;;;;5031084;28;20037;-75
2021/01/22 10:22:23;;;;;;;11.67;6.87;;;5.80;93.70;;;;;;5031483;28;20116;-75
2021/01/22 10:24:49;;;;;;;13.23;7.60;;;5.80;93.70;;;;;;5032460;28;20397;-75
2021/01/22 10:27:16;;;;;;;11.70;7.27;;;5.90;93.70;;;;;;5012234;28;20552;-74
2021/01/22 10:29:43;;;;;;;14.23;7.90;;;5.90;93.60;;;;;;5028748;28;20037;-74
2021/01/22 10:32:10;;;;;;;12.23;7.10;;;6.00;93.60;;;;;;5014418;28;20046;-74
2021/01/22 10:34:38;;;;;;;10.53;5.80;;;6.00;93.60;;;;;;5014405;28;20068;-74
2021/01/22 10:37:06;;;;;;;11.10;6.07;;;6.00;93.60;;;;;;5010641;28;20137;-75
2021/01/22 10:39:34;;;;;;;10.07;6.00;;;6.10;93.60;;;;;;5008731;28;20056;-74
2021/01/22 10:42:01;;;;;;;10.47;5.97;;;6.20;93.80;;;;;;5025011;28;20489;-75
2021/01/22 10:44:28;;;;;;;7.97;5.13;;;6.20;93.50;;;;;;5030005;28;20508;-74
2021/01/22 10:46:55;;;;;;;9.57;4.93;;;6.30;93.50;;;;;;5014322;28;20044;-72
2021/01/22 10:49:21;;;;;;;9.33;4.83;;;6.40;93.60;;;;;;5031561;28;20107;-72
2021/01/22 10:51:48;;;;;;;11.20;6.03;;;6.50;93.60;;;;;;5007932;28;20072;-72
2021/01/22 10:54:14;;;;;;;13.83;7.90;;;6.60;93.30;;;;;;5013738;28;20567;-72
2021/01/22 10:56:41;;;;;;;12.73;6.60;;;6.60;93.00;;;;;;5027132;28;20113;-72
2021/01/22 10:59:07;;;;;;;11.40;6.47;;;6.50;93.10;;;;;;5013257;28;20037;-72
2021/01/22 11:01:34;;;;;;;15.73;6.70;;;6.60;93.20;;;;;;5009429;28;20084;-75
2021/01/22 11:04:08;;;;;;;9.30;5.93;;;6.50;92.90;;;;;;5031212;28;20029;-75
2021/01/22 11:06:34;;;;;;;9.73;5.97;;;6.50;93.00;;;;;;5030921;28;20124;-75
2021/01/22 11:09:03;;;;;;;9.20;5.50;;;6.50;93.00;;;;;;5030925;28;20045;-75
2021/01/22 11:11:29;;;;;;;7.93;5.23;;;6.50;93.10;;;;;;5032241;28;20532;-75
2021/01/22 11:13:56;;;;;;;13.30;6.23;;;6.60;93.00;;;;;;5029454;28;20045;-75
2021/01/22 11:16:22;;;;;;;12.87;5.83;;;6.50;93.00;;;;;;5032102;28;20042;-75
2021/01/22 11:18:49;;;;;;;16.83;6.27;;;6.50;93.00;;;;;;5030857;28;20128;-74
2021/01/22 11:21:15;;;;;;;15.17;6.10;;;6.50;92.90;;;;;;5014597;28;20060;-74
2021/01/22 11:23:42;;;;;;;12.17;5.87;;;6.50;92.80;;;;;;5024961;28;20164;-74
2021/01/22 11:26:08;;;;;;;10.67;5.27;;;6.40;92.80;;;;;;5031716;28;20052;-76
2021/01/22 11:28:35;;;;;;;9.87;5.23;;;6.40;92.90;;;;;;5031132;28;20061;-75
2021/01/22 11:31:02;;;;;;;9.47;4.60;;;6.40;93.00;;;;;;4998178;28;20107;-74
2021/01/22 11:33:29;;;;;;;9.20;5.10;;;6.40;92.90;;;;;;5034243;28;20045;-75
2021/01/22 11:35:55;;;;;;;9.00;4.50;;;6.40;93.00;;;;;;5035174;28;20091;-74
2021/01/22 11:38:22;;;;;;;10.07;5.33;;;6.50;93.00;;;;;;5034851;28;20057;-74
2021/01/22 11:40:48;;;;;;;9.57;5.27;;;6.50;92.80;;;;;;5034964;28;20041;-73
2021/01/22 11:43:15;;;;;;;10.17;4.97;;;6.60;93.00;;;;;;5035282;28;20086;-75
2021/01/22 11:45:42;;;;;;;10.97;4.57;;;6.60;92.70;;;;;;5033545;28;20037;-74
2021/01/22 11:48:09;;;;;;;10.17;4.90;;;6.70;92.60;;;;;;5001363;28;20412;-74
2021/01/22 11:50:35;;;;;;;9.57;5.00;;;6.70;92.40;;;;;;5033638;28;20049;-73
2021/01/22 11:53:03;;;;;;;10.47;5.13;;;6.80;92.40;;;;;;5033953;28;20037;-74
2021/01/22 11:55:39;;;;;;;8.70;4.70;;;6.80;92.10;;;;;;5003647;28;20041;-74
2021/01/22 11:58:06;;;;;;;9.63;4.13;;;6.80;92.20;;;;;;5017477;28;20064;-74
2021/01/22 12:00:33;;;;;;;10.57;4.57;;;6.80;92.00;;;;;;5017671;28;20053;-76
2021/01/22 12:03:00;;;;;;;5.40;3.47;;;6.90;92.10;;;;;;4985346;28;20793;-75
2021/01/22 12:05:28;;;;;;;9.57;3.33;;;7.00;92.30;;;;;;5026424;28;20061;-75
2021/01/22 12:07:54;;;;;;;13.30;4.20;;;7.10;92.30;;;;;;5016580;28;20041;-75
2021/01/22 12:10:21;;;;;;;6.50;3.73;;;7.10;92.20;;;;;;5031067;28;20061;-74
2021/01/22 12:12:47;;;;;;;6.80;3.83;;;7.10;91.90;;;;;;5033380;28;20485;-74
2021/01/22 12:15:14;;;;;;;11.13;4.10;;;7.10;91.80;;;;;;5019282;28;20549;-74
2021/01/22 12:17:43;;;;;;;7.00;3.70;;;7.10;91.70;;;;;;5033743;28;20049;-77
2021/01/22 12:20:10;;;;;;;9.50;4.40;;;7.10;91.70;;;;;;5026624;28;20096;-77
2021/01/22 12:22:36;;;;;;;9.83;4.57;;;7.10;91.40;;;;;;5021554;28;20041;-76
2021/01/22 12:25:03;;;;;;;9.17;3.77;;;7.10;91.30;;;;;;5017192;28;20498;-76
2021/01/22 12:27:30;;;;;;;7.80;3.37;;;7.10;91.50;;;;;;5038865;28;20041;-73
2021/01/22 12:29:57;;;;;;;6.77;3.20;;;7.10;91.70;;;;;;5016724;28;20061;-73
2021/01/22 12:32:23;;;;;;;9.37;4.00;;;7.10;91.70;;;;;;5012834;28;20568;-73
2021/01/22 12:34:53;;;;;;;14.40;5.07;;;7.10;91.60;;;;;;5030441;28;20049;-73
2021/01/22 12:37:20;;;;;;;5.73;2.93;;;7.10;91.50;;;;;;5016215;28;20052;-73
2021/01/22 12:39:46;;;;;;;7.77;3.70;;;7.00;91.50;;;;;;5032436;28;20029;-73
2021/01/22 12:42:13;;;;;;;8.43;3.00;;;6.90;91.50;;;;;;5031864;28;20050;-73
2021/01/22 12:44:39;;;;;;;6.60;3.17;;;6.90;91.80;;;;;;5032395;28;20501;-73
2021/01/22 12:47:06;;;;;;;5.53;2.80;;;6.80;91.30;;;;;;4999652;28;20064;-73
2021/01/22 12:49:32;;;;;;;6.23;3.47;;;6.80;91.60;;;;;;5033640;28;20065;-73
2021/01/22 12:51:59;;;;;;;6.97;3.00;;;6.80;91.60;;;;;;4999500;28;20073;-73
2021/01/22 12:54:26;;;;;;;6.03;2.30;;;6.80;91.70;;;;;;5025142;28;20045;-73
2021/01/22 12:56:52;;;;;;;8.43;3.07;;;6.80;91.70;;;;;;5013069;28;20049;-75
2021/01/22 12:59:19;;;;;;;6.37;2.67;;;6.80;91.70;;;;;;5031957;28;20153;-77